Time;durP1;ratioP1;P1;durP2;ratioP2;P2;SDS_P1;SDS_P2;PMS_P1;PMS_P2;Temp;Humidity;BMP_temperature;BMP_pressure;BME280_temperature;BME280_humidity;BME280_pressure;Samples;Min_cycle;Max_cycle;Signal;HPM_P1;HPM_P2
2024/01/03 00:00:19;;;;;;;;;;;27.60;99.90;;;;;;5094427;28;19916;-67
2024/01/03 00:02:46;;;;;;;;;;;27.70;99.90;;;;;;5094617;28;19978;-68
2024/01/03 00:05:12;;;;;;;;;;;27.50;99.90;;;;;;5103061;28;20388;-67
2024/01/03 00:07:39;;;;;;;;;;;27.60;99.90;;;;;;5114558;28;19907;-68
2024/01/03 00:10:15;;;;;;;;;;;27.70;99.90;;;;;;5105036;28;19911;-67
2024/01/03 00:12:41;;;;;;;;;;;27.80;99.90;;;;;;5094784;28;19908;-67
2024/01/03 00:15:36;;;;;;;;;;;27.80;99.90;;;;;;5093965;28;19908;-69
2024/01/03 00:18:04;;;;;;;;;;;28.00;99.90;;;;;;5094157;28;19915;-68
2024/01/03 00:20:32;;;;;;;;;;;28.10;99.90;;;;;;5093722;28;19916;-67
2024/01/03 00:22:59;;;;;;;;;;;28.20;99.90;;;;;;5094079;28;19908;-69
2024/01/03 00:25:29;;;;;;;;;;;28.40;99.90;;;;;;5094141;28;19914;-68
2024/01/03 00:27:56;;;;;;;;;;;28.50;99.90;;;;;;5093581;28;20365;-68
2024/01/03 00:30:23;;;;;;;;;;;28.60;99.90;;;;;;5094416;28;19934;-67
2024/01/03 00:32:49;;;;;;;;;;;28.70;99.90;;;;;;5094011;28;19973;-68
2024/01/03 00:35:16;;;;;;;;;;;28.70;99.90;;;;;;5093732;28;19908;-67
2024/01/03 00:37:44;;;;;;;;;;;28.70;99.90;;;;;;5094112;28;19911;-68
2024/01/03 00:40:29;;;;;;;;;;;28.60;99.90;;;;;;5093867;28;19917;-67
2024/01/03 00:42:56;;;;;;;;;;;28.70;99.90;;;;;;5093569;28;20277;-67
2024/01/03 00:45:22;;;;;;;;;;;28.90;99.90;;;;;;5093813;28;19956;-67
2024/01/03 00:47:49;;;;;;;;;;;28.90;99.90;;;;;;5092754;28;19908;-69
2024/01/03 00:50:16;;;;;;;;;;;29.00;99.90;;;;;;5093670;28;20415;-68
2024/01/03 00:52:43;;;;;;;;;;;28.90;99.90;;;;;;5093697;28;20284;-69
2024/01/03 00:55:09;;;;;;;;;;;29.00;99.90;;;;;;5092815;28;19963;-67
2024/01/03 00:57:37;;;;;;;;;;;29.20;99.90;;;;;;5093414;28;20357;-67
2024/01/03 01:00:04;;;;;;;;;;;29.30;99.90;;;;;;5093278;28;19916;-68
2024/01/03 01:02:35;;;;;;;;;;;29.40;99.90;;;;;;5092638;28;20287;-68
2024/01/03 01:05:01;;;;;;;;;;;29.30;99.90;;;;;;5093194;28;19908;-67
2024/01/03 01:07:28;;;;;;;;;;;29.40;99.90;;;;;;5093161;28;19912;-67
2024/01/03 01:09:55;;;;;;;;;;;29.40;99.90;;;;;;5093666;28;19954;-68
2024/01/03 01:12:22;;;;;;;;;;;29.40;99.90;;;;;;5092414;28;19908;-68
2024/01/03 01:14:52;;;;;;;;;;;29.50;99.90;;;;;;5093208;28;19908;-70
2024/01/03 01:17:19;;;;;;;;;;;29.60;99.90;;;;;;5092803;28;19912;-71
2024/01/03 01:19:46;;;;;;;;;;;29.60;99.60;;;;;;5092746;28;19920;-69
2024/01/03 01:22:12;;;;;;;;;;;29.60;99.70;;;;;;5093214;28;19915;-70
2024/01/03 01:24:39;;;;;;;;;;;29.70;99.80;;;;;;5093167;28;20376;-68
2024/01/03 01:27:06;;;;;;;;;;;29.80;99.70;;;;;;5093214;28;19908;-68
2024/01/03 01:29:32;;;;;;;;;;;29.80;99.60;;;;;;5092425;28;20284;-68
2024/01/03 01:32:00;;;;;;;;;;;29.80;99.90;;;;;;5093069;28;19912;-71
2024/01/03 01:34:27;;;;;;;;;;;29.80;99.70;;;;;;5093008;28;20490;-72
2024/01/03 01:36:53;;;;;;;;;;;29.70;99.70;;;;;;5074797;28;19998;-71
2024/01/03 01:39:20;;;;;;;;;;;29.70;99.50;;;;;;5092743;28;19916;-69
2024/01/03 01:41:46;;;;;;;;;;;29.80;99.40;;;;;;5092964;28;19912;-68
2024/01/03 01:44:13;;;;;;;;;;;29.90;99.00;;;;;;5092893;28;20287;-72
2024/01/03 01:46:40;;;;;;;;;;;30.10;99.50;;;;;;5092326;28;19912;-71
2024/01/03 01:49:07;;;;;;;;;;;30.20;99.10;;;;;;5092664;28;19909;-71
2024/01/03 01:51:36;;;;;;;;;;;30.20;99.30;;;;;;5092518;28;19908;-70
2024/01/03 01:54:04;;;;;;;;;;;30.20;98.70;;;;;;5074289;28;19920;-68
2024/01/03 01:56:34;;;;;;;;;;;30.20;99.30;;;;;;5091948;28;20015;-68
2024/01/03 01:59:01;;;;;;;;;;;30.30;99.20;;;;;;5074748;28;19951;-69
2024/01/03 02:01:29;;;;;;;;;;;30.20;98.80;;;;;;5074514;28;20335;-68
2024/01/03 02:03:56;;;;;;;;;;;30.30;98.80;;;;;;5092961;28;20381;-69
2024/01/03 02:06:23;;;;;;;;;;;30.20;98.80;;;;;;5093922;28;19923;-68
2024/01/03 02:08:50;;;;;;;;;;;30.40;98.90;;;;;;5090688;28;20277;-69
2024/01/03 02:11:17;;;;;;;;;;;30.60;98.60;;;;;;5091671;28;19908;-70
2024/01/03 02:13:44;;;;;;;;;;;30.50;98.20;;;;;;5092415;28;19915;-68
2024/01/03 02:16:11;;;;;;;;;;;30.50;98.50;;;;;;5092667;28;20022;-68
2024/01/03 02:18:38;;;;;;;;;;;30.50;98.90;;;;;;5092585;28;19933;-70
2024/01/03 02:21:10;;;;;;;;;;;30.60;98.10;;;;;;5092405;28;19916;-70
2024/01/03 02:23:38;;;;;;;;;;;30.70;98.00;;;;;;5108377;28;20344;-71
2024/01/03 02:26:06;;;;;;;;;;;30.90;97.60;;;;;;5111938;28;19912;-68
2024/01/03 02:28:33;;;;;;;;;;;30.90;97.50;;;;;;5079841;28;19912;-69
2024/01/03 02:31:00;;;;;;;;;;;30.90;97.50;;;;;;5116798;28;19908;-68
2024/01/03 02:33:28;;;;;;;;;;;30.90;97.60;;;;;;5116550;28;20441;-69
2024/01/03 02:35:56;;;;;;;;;;;30.90;97.70;;;;;;5115897;28;19908;-71
2024/01/03 02:38:30;;;;;;;;;;;31.00;97.90;;;;;;5116491;28;19915;-68
2024/01/03 02:40:59;;;;;;;;;;;31.00;97.60;;;;;;5116527;28;20015;-68
2024/01/03 02:43:27;;;;;;;;;;;31.10;97.80;;;;;;5097724;28;19918;-68
2024/01/03 02:45:55;;;;;;;;;;;31.00;97.80;;;;;;5116371;28;20006;-67
2024/01/03 02:48:23;;;;;;;;;;;31.20;97.90;;;;;;5116650;28;20416;-68
2024/01/03 02:50:50;;;;;;;;;;;31.10;97.00;;;;;;5103386;28;20007;-68
2024/01/03 02:53:19;;;;;;;;;;;31.10;97.20;;;;;;5095804;28;19923;-68
2024/01/03 02:55:45;;;;;;;;;;;31.10;97.10;;;;;;5076458;28;20416;-69
2024/01/03 02:58:13;;;;;;;;;;;31.00;97.30;;;;;;5095700;28;20430;-68
2024/01/03 03:00:42;;;;;;;;;;;31.10;96.40;;;;;;5095638;28;19923;-68
2024/01/03 03:03:09;;;;;;;;;;;31.60;96.70;;;;;;5095615;28;19977;-68
2024/01/03 03:05:36;;;;;;;;;;;31.90;96.20;;;;;;5094860;28;19908;-70
2024/01/03 03:08:04;;;;;;;;;;;32.40;96.00;;;;;;5077795;28;19908;-68
2024/01/03 03:10:31;;;;;;;;;;;32.60;94.60;;;;;;5095940;28;19908;-68
2024/01/03 03:12:58;;;;;;;;;;;32.90;94.80;;;;;;5095873;28;19908;-67
2024/01/03 03:15:24;;;;;;;;;;;33.50;94.20;;;;;;5095459;28;20260;-67
2024/01/03 03:17:52;;;;;;;;;;;34.20;92.70;;;;;;5095350;28;19953;-71
2024/01/03 03:20:20;;;;;;;;;;;34.70;91.70;;;;;;5077347;28;19920;-70
2024/01/03 03:22:49;;;;;;;;;;;34.90;91.00;;;;;;5094805;28;19915;-68
2024/01/03 03:25:20;;;;;;;;;;;35.30;90.90;;;;;;5094752;28;19908;-68
2024/01/03 03:27:48;;;;;;;;;;;35.70;90.70;;;;;;5095223;28;19915;-68
2024/01/03 03:30:15;;;;;;;;;;;35.80;90.00;;;;;;5095411;28;19916;-69
2024/01/03 03:32:44;;;;;;;;;;;36.00;88.10;;;;;;5095167;28;19908;-71
2024/01/03 03:35:15;;;;;;;;;;;36.30;86.90;;;;;;5094403;28;20276;-68
2024/01/03 03:37:42;;;;;;;;;;;35.90;86.80;;;;;;5076554;28;20383;-70
2024/01/03 03:40:09;;;;;;;;;;;35.80;86.30;;;;;;5093639;28;20412;-67
2024/01/03 03:42:36;;;;;;;;;;;35.70;87.70;;;;;;5095243;28;19933;-69
2024/01/03 03:45:02;;;;;;;;;;;35.70;87.90;;;;;;5094941;28;20497;-68
2024/01/03 03:47:29;;;;;;;;;;;35.90;85.90;;;;;;5094814;28;19995;-67
2024/01/03 03:49:56;;;;;;;;;;;35.80;86.90;;;;;;5092945;28;19908;-68
2024/01/03 03:52:23;;;;;;;;;;;35.40;86.10;;;;;;5094705;28;20315;-70
2024/01/03 03:54:49;;;;;;;;;;;34.80;86.00;;;;;;5094598;28;19920;-68
2024/01/03 03:57:16;;;;;;;;;;;34.00;88.00;;;;;;5094323;28;19915;-68
2024/01/03 03:59:43;;;;;;;;;;;33.20;89.90;;;;;;5094570;28;19916;-68
2024/01/03 04:02:12;;;;;;;;;;;32.10;91.20;;;;;;5094385;28;20428;-68
2024/01/03 04:04:39;;;;;;;;;;;31.30;92.40;;;;;;5094346;28;20373;-71
2024/01/03 04:07:06;;;;;;;;;;;30.90;92.70;;;;;;5094323;28;19908;-70
2024/01/03 04:09:33;;;;;;;;;;;30.50;93.50;;;;;;5093709;28;19914;-67
2024/01/03 04:12:00;;;;;;;;;;;30.20;94.30;;;;;;5094191;28;19985;-69
2024/01/03 04:14:28;;;;;;;;;;;29.90;94.60;;;;;;5094111;28;19912;-67
2024/01/03 04:16:55;;;;;;;;;;;29.50;95.60;;;;;;5094107;28;19908;-70
2024/01/03 04:19:22;;;;;;;;;;;29.10;96.00;;;;;;5094061;28;19940;-68
2024/01/03 04:21:49;;;;;;;;;;;28.60;96.40;;;;;;5094239;28;20383;-68
2024/01/03 04:24:16;;;;;;;;;;;28.50;97.40;;;;;;5075264;28;19956;-67
2024/01/03 04:26:42;;;;;;;;;;;28.30;97.80;;;;;;5094236;28;19970;-72
2024/01/03 04:29:09;;;;;;;;;;;28.30;98.10;;;;;;5094124;28;19908;-69
2024/01/03 04:31:36;;;;;;;;;;;28.10;98.40;;;;;;5094066;28;19953;-69
2024/01/03 04:34:03;;;;;;;;;;;28.10;98.80;;;;;;5094290;28;20053;-70
2024/01/03 04:36:29;;;;;;;;;;;28.10;99.20;;;;;;5093811;28;19923;-67
2024/01/03 04:38:56;;;;;;;;;;;27.80;99.40;;;;;;5093819;28;19915;-67
2024/01/03 04:41:24;;;;;;;;;;;27.60;99.90;;;;;;5092959;28;20029;-71
2024/01/03 04:43:51;;;;;;;;;;;27.40;99.90;;;;;;5094232;28;20331;-67
2024/01/03 04:46:18;;;;;;;;;;;27.40;99.90;;;;;;5093935;28;19915;-67
2024/01/03 04:48:44;;;;;;;;;;;27.40;99.90;;;;;;5093779;28;19909;-67
2024/01/03 04:51:12;;;;;;;;;;;27.20;99.90;;;;;;5093033;28;19908;-68
2024/01/03 04:53:39;;;;;;;;;;;27.20;99.90;;;;;;5093673;28;19908;-71
2024/01/03 04:56:06;;;;;;;;;;;27.20;99.90;;;;;;5093760;28;19951;-68
2024/01/03 04:58:33;;;;;;;;;;;27.10;99.90;;;;;;5093556;28;20321;-70
2024/01/03 05:00:59;;;;;;;;;;;27.00;99.90;;;;;;5093296;28;19978;-70
2024/01/03 05:03:26;;;;;;;;;;;27.00;99.90;;;;;;5093179;28;20367;-71
2024/01/03 05:05:52;;;;;;;;;;;26.80;99.90;;;;;;5093107;28;19904;-67
2024/01/03 05:08:19;;;;;;;;;;;26.80;99.90;;;;;;5092708;28;20353;-68
2024/01/03 05:10:46;;;;;;;;;;;26.70;99.90;;;;;;5093531;28;20042;-70
2024/01/03 05:13:12;;;;;;;;;;;26.70;99.90;;;;;;5075047;28;19908;-72
2024/01/03 05:15:39;;;;;;;;;;;26.60;99.90;;;;;;5075363;28;19908;-70
2024/01/03 05:18:06;;;;;;;;;;;26.60;99.90;;;;;;5093582;28;19908;-66
2024/01/03 05:20:32;;;;;;;;;;;26.70;99.90;;;;;;5092830;28;19923;-70
2024/01/03 05:22:59;;;;;;;;;;;26.60;99.90;;;;;;5092890;28;19908;-70
2024/01/03 05:25:26;;;;;;;;;;;26.60;99.90;;;;;;5093208;28;20050;-68
2024/01/03 05:27:53;;;;;;;;;;;26.70;99.90;;;;;;5093073;28;19908;-67
2024/01/03 05:30:19;;;;;;;;;;;26.70;99.90;;;;;;5093069;28;19987;-70
2024/01/03 05:32:46;;;;;;;;;;;26.80;99.90;;;;;;5093019;28;19915;-69
2024/01/03 05:35:13;;;;;;;;;;;26.90;99.90;;;;;;5092715;28;19914;-68
2024/01/03 05:37:39;;;;;;;;;;;26.90;99.90;;;;;;5074268;28;19908;-68
2024/01/03 05:40:06;;;;;;;;;;;27.00;99.90;;;;;;5092904;28;19966;-67
2024/01/03 05:42:33;;;;;;;;;;;27.20;99.90;;;;;;5092645;28;19908;-67
2024/01/03 05:45:00;;;;;;;;;;;27.30;99.90;;;;;;5092826;28;19912;-68
2024/01/03 05:47:27;;;;;;;;;;;27.60;99.90;;;;;;5092659;28;19908;-67
2024/01/03 05:49:54;;;;;;;;;;;27.70;99.90;;;;;;5092524;28;20030;-67
2024/01/03 05:52:20;;;;;;;;;;;27.90;99.90;;;;;;5092302;28;19908;-70
2024/01/03 05:54:48;;;;;;;;;;;27.90;99.90;;;;;;5092356;28;19920;-69
2024/01/03 05:57:14;;;;;;;;;;;27.90;99.90;;;;;;5092727;28;19908;-67
2024/01/03 05:59:41;;;;;;;;;;;28.00;99.90;;;;;;5092207;28;20013;-67
2024/01/03 06:02:08;;;;;;;;;;;27.90;99.90;;;;;;5102966;28;19934;-69
2024/01/03 06:04:34;;;;;;;;;;;27.90;99.90;;;;;;5099408;28;19963;-68
2024/01/03 06:07:01;;;;;;;;;;;27.90;99.90;;;;;;5097201;28;20357;-66
2024/01/03 06:09:28;;;;;;;;;;;27.80;99.90;;;;;;5097467;28;19999;-68
2024/01/03 06:11:54;;;;;;;;;;;27.80;99.90;;;;;;5097666;28;20001;-68
2024/01/03 06:14:21;;;;;;;;;;;27.90;99.90;;;;;;5099188;28;19908;-68
2024/01/03 06:16:48;;;;;;;;;;;28.00;99.90;;;;;;5081159;28;20285;-67
2024/01/03 06:19:14;;;;;;;;;;;27.90;99.90;;;;;;5099243;28;19923;-66
2024/01/03 06:21:41;;;;;;;;;;;27.90;99.90;;;;;;5098139;28;20010;-67
2024/01/03 06:24:08;;;;;;;;;;;27.90;99.90;;;;;;5098555;28;19963;-68
2024/01/03 06:26:34;;;;;;;;;;;28.00;99.90;;;;;;5098827;28;19953;-70
2024/01/03 06:29:01;;;;;;;;;;;28.00;99.90;;;;;;5099264;28;19908;-69
2024/01/03 06:31:28;;;;;;;;;;;27.80;99.90;;;;;;5105999;28;19912;-68
2024/01/03 06:33:55;;;;;;;;;;;27.80;99.90;;;;;;5118946;28;19939;-71
2024/01/03 06:36:21;;;;;;;;;;;27.80;99.90;;;;;;5097554;28;19908;-67
2024/01/03 06:38:50;;;;;;;;;;;27.90;99.90;;;;;;5098610;28;19912;-66
2024/01/03 06:41:17;;;;;;;;;;;27.90;99.90;;;;;;5098937;28;19916;-71
2024/01/03 06:43:47;;;;;;;;;;;27.80;99.90;;;;;;5098800;28;19908;-67
2024/01/03 06:46:13;;;;;;;;;;;27.70;99.90;;;;;;5098809;28;19908;-66
2024/01/03 06:48:40;;;;;;;;;;;27.60;99.90;;;;;;5098946;28;20002;-67
2024/01/03 06:51:07;;;;;;;;;;;27.60;99.90;;;;;;5098968;28;20317;-67
2024/01/03 06:53:37;;;;;;;;;;;27.60;99.90;;;;;;5097787;28;19908;-68
2024/01/03 06:56:04;;;;;;;;;;;27.50;99.90;;;;;;5098594;28;20377;-67
2024/01/03 06:58:31;;;;;;;;;;;27.30;99.90;;;;;;5099038;28;19924;-69
2024/01/03 07:00:58;;;;;;;;;;;27.20;99.90;;;;;;5098872;28;19923;-67
2024/01/03 07:03:24;;;;;;;;;;;27.30;99.90;;;;;;5080761;28;20225;-70
2024/01/03 07:05:51;;;;;;;;;;;27.30;99.90;;;;;;5098946;28;19914;-72
2024/01/03 07:08:17;;;;;;;;;;;27.30;99.90;;;;;;5098971;28;19915;-69
2024/01/03 07:10:44;;;;;;;;;;;27.40;99.90;;;;;;5098817;28;19991;-71
2024/01/03 07:13:11;;;;;;;;;;;27.40;99.90;;;;;;5097652;28;20311;-69
2024/01/03 07:15:38;;;;;;;;;;;27.40;99.90;;;;;;5095327;28;19981;-69
2024/01/03 07:18:04;;;;;;;;;;;27.40;99.90;;;;;;5095557;28;20459;-71
2024/01/03 07:20:31;;;;;;;;;;;27.30;99.90;;;;;;5095354;28;19985;-73
2024/01/03 07:22:58;;;;;;;;;;;27.20;99.90;;;;;;5095116;28;20034;-70
2024/01/03 07:25:24;;;;;;;;;;;27.20;99.90;;;;;;5095329;28;19915;-70
2024/01/03 07:27:51;;;;;;;;;;;27.20;99.90;;;;;;5095317;28;20003;-74
2024/01/03 07:30:18;;;;;;;;;;;27.10;99.90;;;;;;5095322;28;19908;-69
2024/01/03 07:32:44;;;;;;;;;;;27.10;99.90;;;;;;5095134;28;19919;-72
2024/01/03 07:35:11;;;;;;;;;;;27.10;99.90;;;;;;5095378;28;19915;-67
2024/01/03 07:37:38;;;;;;;;;;;27.00;99.90;;;;;;5094984;28;19908;-69
2024/01/03 07:40:05;;;;;;;;;;;27.00;99.90;;;;;;5094867;28;19999;-69
2024/01/03 07:42:31;;;;;;;;;;;27.00;99.90;;;;;;5094639;28;20011;-73
2024/01/03 07:44:58;;;;;;;;;;;27.00;99.90;;;;;;5095080;28;19915;-73
2024/01/03 07:47:24;;;;;;;;;;;26.90;99.90;;;;;;5095139;28;19962;-72
2024/01/03 07:49:51;;;;;;;;;;;26.90;99.90;;;;;;5095186;28;19944;-70
2024/01/03 07:52:18;;;;;;;;;;;26.90;99.90;;;;;;5094714;28;19908;-69
2024/01/03 07:54:44;;;;;;;;;;;26.80;99.90;;;;;;5094589;28;19916;-72
2024/01/03 07:57:11;;;;;;;;;;;26.70;99.90;;;;;;5076581;28;19943;-67
2024/01/03 07:59:40;;;;;;;;;;;26.60;99.90;;;;;;5094771;28;19908;-67
2024/01/03 08:02:07;;;;;;;;;;;26.60;99.90;;;;;;5094710;28;19908;-73
2024/01/03 08:04:34;;;;;;;;;;;26.60;99.90;;;;;;5094816;28;19998;-73
2024/01/03 08:07:01;;;;;;;;;;;26.50;99.90;;;;;;5094695;28;19912;-71
2024/01/03 08:09:28;;;;;;;;;;;26.50;99.90;;;;;;5094556;28;19915;-72
2024/01/03 08:11:55;;;;;;;;;;;26.50;99.90;;;;;;5094728;28;19908;-70
2024/01/03 08:14:21;;;;;;;;;;;26.50;99.90;;;;;;5094594;28;19908;-70
2024/01/03 08:16:48;;;;;;;;;;;26.40;99.90;;;;;;5094674;28;20422;-71
2024/01/03 08:19:15;;;;;;;;;;;26.30;99.90;;;;;;5094428;28;20303;-67
2024/01/03 08:21:41;;;;;;;;;;;26.30;99.90;;;;;;5094281;28;19916;-69
2024/01/03 08:24:08;;;;;;;;;;;26.30;99.90;;;;;;5094494;28;19958;-72
2024/01/03 08:26:35;;;;;;;;;;;26.20;99.90;;;;;;5093112;28;19908;-72
2024/01/03 08:29:01;;;;;;;;;;;26.10;99.90;;;;;;5094319;28;19908;-70
2024/01/03 08:31:28;;;;;;;;;;;26.00;99.90;;;;;;5094342;28;19908;-69
2024/01/03 08:33:55;;;;;;;;;;;26.00;99.90;;;;;;5094230;28;20345;-71
2024/01/03 08:36:22;;;;;;;;;;;26.00;99.90;;;;;;5094085;28;19915;-71
2024/01/03 08:38:48;;;;;;;;;;;26.00;99.90;;;;;;5093951;28;19965;-71
2024/01/03 08:41:16;;;;;;;;;;;25.90;99.90;;;;;;5093887;28;19916;-70
2024/01/03 08:43:42;;;;;;;;;;;25.90;99.90;;;;;;5094072;28;19968;-73
2024/01/03 08:46:09;;;;;;;;;;;25.80;99.90;;;;;;5094102;28;20000;-66
2024/01/03 08:48:37;;;;;;;;;;;25.90;99.90;;;;;;5093971;28;19915;-69
2024/01/03 08:51:03;;;;;;;;;;;25.80;99.90;;;;;;5076025;28;19947;-72
2024/01/03 08:53:30;;;;;;;;;;;25.80;99.90;;;;;;5093817;28;19908;-71
2024/01/03 08:55:57;;;;;;;;;;;25.60;99.90;;;;;;5093969;28;20041;-71
2024/01/03 08:58:23;;;;;;;;;;;25.60;99.90;;;;;;5093744;28;19915;-72
2024/01/03 09:00:50;;;;;;;;;;;25.60;99.90;;;;;;5093597;28;19920;-72
2024/01/03 09:03:17;;;;;;;;;;;25.50;99.90;;;;;;5093709;28;19909;-72
2024/01/03 09:05:43;;;;;;;;;;;25.40;99.90;;;;;;5093809;28;19923;-72
2024/01/03 09:08:10;;;;;;;;;;;25.40;99.90;;;;;;5093417;28;20373;-69
2024/01/03 09:10:37;;;;;;;;;;;25.30;99.90;;;;;;5093656;28;19934;-72
2024/01/03 09:13:04;;;;;;;;;;;25.20;99.90;;;;;;5093620;28;19908;-74
2024/01/03 09:15:30;;;;;;;;;;;25.10;99.90;;;;;;5093833;28;19916;-72
2024/01/03 09:17:57;;;;;;;;;;;25.10;99.90;;;;;;5093415;28;19923;-75
2024/01/03 09:20:24;;;;;;;;;;;25.10;99.90;;;;;;5093126;28;19993;-73
2024/01/03 09:22:53;;;;;;;;;;;25.00;99.90;;;;;;5093471;28;19908;-69
2024/01/03 09:25:20;;;;;;;;;;;25.00;99.90;;;;;;5093514;28;20361;-71
2024/01/03 09:27:47;;;;;;;;;;;25.00;99.90;;;;;;5093347;28;20314;-68
2024/01/03 09:30:13;;;;;;;;;;;25.00;99.90;;;;;;5093304;28;19908;-68
2024/01/03 09:32:41;;;;;;;;;;;25.00;99.90;;;;;;5093336;28;20314;-68
2024/01/03 09:35:10;;;;;;;;;;;24.90;99.90;;;;;;5093212;28;19934;-67
2024/01/03 09:37:37;;;;;;;;;;;24.90;99.90;;;;;;5092745;28;20031;-69
2024/01/03 09:40:04;;;;;;;;;;;24.90;99.90;;;;;;5092634;28;20385;-74
2024/01/03 09:42:31;;;;;;;;;;;24.90;99.90;;;;;;5098201;28;19912;-68
2024/01/03 09:44:58;;;;;;;;;;;24.90;99.90;;;;;;5092749;28;19915;-68
2024/01/03 09:47:25;;;;;;;;;;;24.80;99.90;;;;;;5092446;28;19933;-67
2024/01/03 09:49:52;;;;;;;;;;;24.80;99.90;;;;;;5092527;28;19916;-68
2024/01/03 09:52:19;;;;;;;;;;;24.80;99.90;;;;;;5099088;28;20007;-69
2024/01/03 09:54:46;;;;;;;;;;;24.80;99.90;;;;;;5094828;28;19927;-68
2024/01/03 09:57:15;;;;;;;;;;;24.80;99.90;;;;;;5092376;28;19908;-68
2024/01/03 09:59:41;;;;;;;;;;;24.80;99.90;;;;;;5092462;28;19943;-70
2024/01/03 10:02:09;;;;;;;;;;;24.80;99.90;;;;;;5092155;28;19913;-67
2024/01/03 10:04:35;;;;;;;;;;;24.80;99.90;;;;;;5100844;28;20350;-67
2024/01/03 10:07:02;;;;;;;;;;;24.80;99.90;;;;;;5095903;28;20281;-69
2024/01/03 10:09:44;;;;;;;;;;;24.90;99.90;;;;;;5092496;28;19908;-67
2024/01/03 10:12:20;;;;;;;;;;;24.80;99.90;;;;;;5092325;28;20253;-66
2024/01/03 10:14:47;;;;;;;;;;;24.80;99.90;;;;;;5074078;28;19970;-71
2024/01/03 10:17:13;;;;;;;;;;;24.80;99.90;;;;;;5092514;28;19908;-66
2024/01/03 10:19:40;;;;;;;;;;;24.80;99.90;;;;;;5074369;28;19916;-67
2024/01/03 10:22:07;;;;;;;;;;;24.80;99.90;;;;;;5092518;28;20029;-70
2024/01/03 10:24:40;;;;;;;;;;;24.80;99.90;;;;;;5092358;28;19908;-70
2024/01/03 10:27:08;;;;;;;;;;;24.80;99.90;;;;;;5092500;28;19978;-68
2024/01/03 10:29:36;;;;;;;;;;;24.80;99.90;;;;;;5092517;28;19908;-67
2024/01/03 10:32:05;;;;;;;;;;;24.80;99.90;;;;;;5092496;28;19908;-68
2024/01/03 10:34:32;;;;;;;;;;;24.70;99.90;;;;;;5092271;28;19970;-66
2024/01/03 10:36:59;;;;;;;;;;;24.70;99.90;;;;;;5074243;28;20276;-66
2024/01/03 10:39:26;;;;;;;;;;;24.60;99.90;;;;;;5092486;28;19994;-70
2024/01/03 10:41:54;;;;;;;;;;;24.70;99.90;;;;;;5095607;28;19973;-69
2024/01/03 10:44:22;;;;;;;;;;;24.70;99.90;;;;;;5091833;28;19921;-67
2024/01/03 10:46:49;;;;;;;;;;;24.60;99.90;;;;;;5103376;28;20284;-68
2024/01/03 10:49:16;;;;;;;;;;;24.70;99.90;;;;;;5093205;28;19962;-71
2024/01/03 10:51:44;;;;;;;;;;;24.60;99.90;;;;;;5096252;28;19940;-70
2024/01/03 10:54:12;;;;;;;;;;;24.60;99.90;;;;;;5095629;28;19924;-69
2024/01/03 10:56:38;;;;;;;;;;;24.50;99.90;;;;;;5095797;28;20006;-68
2024/01/03 10:59:06;;;;;;;;;;;24.50;99.90;;;;;;5095811;28;20004;-69
2024/01/03 11:01:46;;;;;;;;;;;24.40;99.90;;;;;;5095496;28;19983;-72
2024/01/03 11:04:23;;;;;;;;;;;24.40;99.90;;;;;;5101052;28;19912;-70
2024/01/03 11:07:09;;;;;;;;;;;24.40;99.90;;;;;;5095562;28;20008;-68
2024/01/03 11:09:35;;;;;;;;;;;24.30;99.90;;;;;;5113228;28;19908;-70
2024/01/03 11:12:09;;;;;;;;;;;24.30;99.90;;;;;;5114518;28;20410;-67
2024/01/03 11:14:35;;;;;;;;;;;24.30;99.90;;;;;;5101502;28;20372;-67
2024/01/03 11:17:02;;;;;;;;;;;24.30;99.90;;;;;;5103768;28;19951;-72
2024/01/03 11:19:33;;;;;;;;;;;24.30;99.90;;;;;;5115613;28;19996;-70
2024/01/03 11:22:02;;;;;;;;;;;24.30;99.90;;;;;;5100536;28;19919;-73
2024/01/03 11:24:30;;;;;;;;;;;24.20;99.90;;;;;;5095533;28;19908;-73
2024/01/03 11:26:58;;;;;;;;;;;24.20;99.90;;;;;;5094994;28;19939;-73
2024/01/03 11:29:48;;;;;;;;;;;24.20;99.90;;;;;;5094879;28;20576;-71
2024/01/03 11:32:16;;;;;;;;;;;24.20;99.90;;;;;;5094827;28;20049;-71
2024/01/03 11:34:45;;;;;;;;;;;24.20;99.90;;;;;;5094996;28;20394;-73
2024/01/03 11:37:12;;;;;;;;;;;24.20;99.90;;;;;;5094920;28;19908;-69
2024/01/03 11:39:43;;;;;;;;;;;24.20;99.90;;;;;;5094999;28;20007;-73
2024/01/03 11:42:10;;;;;;;;;;;24.10;99.90;;;;;;5094719;28;19912;-71
2024/01/03 11:44:37;;;;;;;;;;;24.20;99.90;;;;;;5095337;28;19912;-68
2024/01/03 11:47:04;;;;;;;;;;;24.20;99.90;;;;;;5094904;28;19915;-66
2024/01/03 11:49:31;;;;;;;;;;;24.10;99.90;;;;;;5095882;28;20005;-73
2024/01/03 11:51:58;;;;;;;;;;;24.20;99.90;;;;;;5104543;28;19908;-71
2024/01/03 11:54:25;;;;;;;;;;;24.20;99.90;;;;;;5108561;28;19915;-72
2024/01/03 11:56:56;;;;;;;;;;;24.20;99.90;;;;;;5114958;28;19908;-74
2024/01/03 11:59:25;;;;;;;;;;;24.20;99.90;;;;;;5114610;28;19913;-74
2024/01/03 12:01:58;;;;;;;;;;;24.10;99.90;;;;;;5114963;28;19916;-73
2024/01/03 12:04:25;;;;;;;;;;;24.10;99.90;;;;;;5092640;28;19912;-68
2024/01/03 12:06:58;;;;;;;;;;;24.10;99.90;;;;;;5110984;28;19914;-68
2024/01/03 12:09:32;;;;;;;;;;;24.10;99.90;;;;;;5105994;28;19912;-66
2024/01/03 12:11:59;;;;;;;;;;;24.10;99.90;;;;;;5094191;28;19908;-67
2024/01/03 12:14:25;;;;;;;;;;;24.20;99.90;;;;;;5094356;28;19955;-72
2024/01/03 12:16:55;;;;;;;;;;;24.20;99.90;;;;;;5094309;28;19908;-67
2024/01/03 12:19:32;;;;;;;;;;;24.10;99.90;;;;;;5094429;28;19915;-67
2024/01/03 12:21:59;;;;;;;;;;;24.20;99.90;;;;;;5094264;28;19943;-66
2024/01/03 12:24:44;;;;;;;;;;;24.20;99.90;;;;;;5094332;28;19970;-66
2024/01/03 12:27:11;;;;;;;;;;;24.20;99.90;;;;;;5094533;28;20333;-68
2024/01/03 12:29:39;;;;;;;;;;;24.20;99.90;;;;;;5094299;28;19914;-68
2024/01/03 12:32:13;;;;;;;;;;;24.10;99.90;;;;;;5093532;28;19922;-65
2024/01/03 12:34:40;;;;;;;;;;;24.10;99.90;;;;;;5093962;28;19908;-70
2024/01/03 12:37:07;;;;;;;;;;;24.10;99.90;;;;;;5094110;28;19912;-67
2024/01/03 12:39:34;;;;;;;;;;;24.00;99.90;;;;;;5099107;28;19916;-67
2024/01/03 12:42:04;;;;;;;;;;;24.10;99.90;;;;;;5099706;28;19915;-66
2024/01/03 12:44:31;;;;;;;;;;;24.10;99.90;;;;;;5114414;28;20364;-67
2024/01/03 12:46:58;;;;;;;;;;;24.00;99.90;;;;;;5099828;28;19908;-69
2024/01/03 12:49:25;;;;;;;;;;;24.00;99.90;;;;;;5093819;28;19930;-68
2024/01/03 12:51:52;;;;;;;;;;;24.10;99.90;;;;;;5093758;28;19923;-68
2024/01/03 12:54:19;;;;;;;;;;;24.00;99.90;;;;;;5093446;28;19923;-68
2024/01/03 12:56:46;;;;;;;;;;;24.00;99.90;;;;;;5093953;28;20011;-68
2024/01/03 12:59:12;;;;;;;;;;;24.00;99.90;;;;;;5093698;28;19915;-72
2024/01/03 13:01:39;;;;;;;;;;;24.00;99.90;;;;;;5093345;28;19916;-71
2024/01/03 13:04:06;;;;;;;;;;;24.00;99.90;;;;;;5093217;28;20416;-71
2024/01/03 13:06:33;;;;;;;;;;;24.00;99.90;;;;;;5104220;28;19912;-74
2024/01/03 13:09:02;;;;;;;;;;;23.90;99.90;;;;;;5108549;28;20007;-73
2024/01/03 13:11:28;;;;;;;;;;;24.00;99.90;;;;;;5112797;28;20280;-72
2024/01/03 13:13:55;;;;;;;;;;;23.90;99.90;;;;;;5093429;28;19961;-66
2024/01/03 13:16:22;;;;;;;;;;;23.90;99.90;;;;;;5093460;28;19923;-65
2024/01/03 13:18:49;;;;;;;;;;;23.90;99.90;;;;;;5093431;28;19915;-67
2024/01/03 13:21:16;;;;;;;;;;;24.00;99.90;;;;;;5092913;28;19985;-67
2024/01/03 13:23:43;;;;;;;;;;;23.90;99.90;;;;;;5092965;28;20383;-66
2024/01/03 13:26:10;;;;;;;;;;;23.90;99.90;;;;;;5092975;28;19908;-67
2024/01/03 13:28:40;;;;;;;;;;;23.90;99.90;;;;;;5093179;28;19953;-66
2024/01/03 13:31:12;;;;;;;;;;;23.90;99.90;;;;;;5092826;28;19909;-67
2024/01/03 13:33:39;;;;;;;;;;;23.90;99.90;;;;;;5092787;28;19908;-67
2024/01/03 13:36:05;;;;;;;;;;;23.80;99.90;;;;;;5092835;28;19908;-66
2024/01/03 13:38:32;;;;;;;;;;;23.80;99.90;;;;;;5092987;28;19908;-66
2024/01/03 13:40:59;;;;;;;;;;;23.80;99.90;;;;;;5097321;28;19927;-69
2024/01/03 13:43:27;;;;;;;;;;;23.80;99.90;;;;;;5109572;28;19908;-69
2024/01/03 13:45:54;;;;;;;;;;;23.80;99.90;;;;;;5110581;28;20011;-66
2024/01/03 13:48:21;;;;;;;;;;;23.80;99.90;;;;;;5093472;28;19908;-69
2024/01/03 13:50:48;;;;;;;;;;;23.70;99.90;;;;;;5093219;28;19915;-73
2024/01/03 13:53:15;;;;;;;;;;;23.80;99.90;;;;;;5092977;28;20374;-69
2024/01/03 13:55:42;;;;;;;;;;;23.80;99.90;;;;;;5093198;28;20009;-68
2024/01/03 13:58:09;;;;;;;;;;;23.80;99.90;;;;;;5093299;28;19908;-68
2024/01/03 14:00:35;;;;;;;;;;;23.70;99.90;;;;;;5100305;28;19972;-67
2024/01/03 14:03:04;;;;;;;;;;;23.80;99.90;;;;;;5094721;28;20363;-67
2024/01/03 14:05:35;;;;;;;;;;;23.80;99.90;;;;;;5112891;28;19934;-67
2024/01/03 14:08:01;;;;;;;;;;;23.70;99.90;;;;;;5112816;28;19908;-66
2024/01/03 14:10:28;;;;;;;;;;;23.70;99.90;;;;;;5112581;28;20315;-66
2024/01/03 14:12:55;;;;;;;;;;;23.70;99.90;;;;;;5099332;28;19908;-67
2024/01/03 14:15:22;;;;;;;;;;;23.70;99.90;;;;;;5094778;28;19924;-66
2024/01/03 14:17:49;;;;;;;;;;;23.70;99.90;;;;;;5092524;28;19912;-66